Time;durP1;ratioP1;P1;durP2;ratioP2;P2;SDS_P1;SDS_P2;PMS_P1;PMS_P2;Temp;Humidity;BMP_temperature;BMP_pressure;BME280_temperature;BME280_humidity;BME280_pressure;Samples;Min_cycle;Max_cycle;Signal;HPM_P1;HPM_P2
2023/10/10 00:02:18;;;;;;;3.40;3.10;;;25.10;69.60;;;;;;5067695;28;20470;-73
2023/10/10 00:04:47;;;;;;;5.33;3.97;;;25.10;69.60;;;;;;5092273;28;20491;-74
2023/10/10 00:07:16;;;;;;;4.27;3.13;;;25.10;69.60;;;;;;5088539;28;20451;-74
2023/10/10 00:09:47;;;;;;;4.33;3.33;;;25.10;69.50;;;;;;5090834;28;20549;-74
2023/10/10 00:12:25;;;;;;;4.10;3.20;;;25.10;69.50;;;;;;5090178;28;20988;-73
2023/10/10 00:14:57;;;;;;;3.97;3.17;;;25.10;69.50;;;;;;5080363;28;20535;-73
2023/10/10 00:17:34;;;;;;;4.73;2.90;;;25.10;69.50;;;;;;5064085;28;20795;-74
2023/10/10 00:20:16;;;;;;;3.93;3.37;;;25.10;69.50;;;;;;5075415;28;20856;-74
2023/10/10 00:22:47;;;;;;;4.83;3.30;;;25.10;69.50;;;;;;5087577;28;20461;-76
2023/10/10 00:25:28;;;;;;;4.07;3.53;;;25.10;69.50;;;;;;5085688;28;20936;-76
2023/10/10 00:27:59;;;;;;;5.50;3.57;;;25.10;69.40;;;;;;5080500;28;20483;-74
2023/10/10 00:30:33;;;;;;;5.30;3.07;;;25.10;69.40;;;;;;5084046;28;20459;-74
2023/10/10 00:33:03;;;;;;;6.50;3.80;;;25.10;69.40;;;;;;5085329;28;20477;-72
2023/10/10 00:35:32;;;;;;;5.67;3.43;;;25.10;69.40;;;;;;5075533;28;20463;-73
2023/10/10 00:38:04;;;;;;;6.30;3.10;;;25.10;69.40;;;;;;5067246;28;20466;-74
2023/10/10 00:40:39;;;;;;;4.47;3.00;;;25.10;69.40;;;;;;5065914;28;20452;-73
2023/10/10 00:43:13;;;;;;;3.50;3.20;;;25.10;69.40;;;;;;5082620;28;20579;-69
2023/10/10 00:45:43;;;;;;;5.57;3.83;;;25.10;69.40;;;;;;5079354;28;20460;-68
2023/10/10 00:48:16;;;;;;;4.83;3.97;;;25.10;69.20;;;;;;5078323;28;20889;-67
2023/10/10 00:50:47;;;;;;;5.83;3.23;;;25.10;69.10;;;;;;5078169;28;20463;-67
2023/10/10 00:53:15;;;;;;;3.37;3.00;;;25.10;69.00;;;;;;5071802;28;21360;-68
2023/10/10 00:55:55;;;;;;;4.83;3.27;;;25.10;69.00;;;;;;5062624;28;20577;-68
2023/10/10 00:58:27;;;;;;;3.10;2.80;;;25.10;68.90;;;;;;5075638;28;20472;-69
2023/10/10 01:01:04;;;;;;;3.40;3.10;;;25.10;68.90;;;;;;5077619;28;20465;-67
2023/10/10 01:03:34;;;;;;;5.53;4.07;;;25.10;68.80;;;;;;5062186;28;20452;-67
2023/10/10 01:06:07;;;;;;;4.17;3.80;;;25.10;68.80;;;;;;5072483;28;20541;-67
2023/10/10 01:08:59;;;;;;;4.83;3.00;;;25.10;68.80;;;;;;5059171;28;20463;-69
2023/10/10 01:11:29;;;;;;;3.50;2.63;;;25.10;68.80;;;;;;5073636;28;20455;-67
2023/10/10 01:14:00;;;;;;;3.27;2.73;;;25.10;68.70;;;;;;5088445;28;20512;-67
2023/10/10 01:16:28;;;;;;;4.00;2.70;;;25.10;68.70;;;;;;5058863;28;20489;-67
2023/10/10 01:18:57;;;;;;;3.77;3.17;;;25.10;68.70;;;;;;5074128;28;20452;-67
2023/10/10 01:21:32;;;;;;;3.43;3.13;;;25.10;68.70;;;;;;5081067;28;20513;-68
2023/10/10 01:24:11;;;;;;;5.40;3.17;;;25.00;68.70;;;;;;5082334;28;20458;-67
2023/10/10 01:26:44;;;;;;;4.70;3.83;;;25.00;68.70;;;;;;5062832;28;20801;-67
2023/10/10 01:29:21;;;;;;;3.57;3.27;;;25.00;68.60;;;;;;5087225;28;20457;-67
2023/10/10 01:31:51;;;;;;;4.87;3.67;;;25.00;68.70;;;;;;5084436;28;20442;-67
2023/10/10 01:34:33;;;;;;;3.63;3.03;;;25.00;68.70;;;;;;5056967;28;20488;-68
2023/10/10 01:37:07;;;;;;;6.30;3.23;;;25.00;68.60;;;;;;5070479;28;20450;-67
2023/10/10 01:39:48;;;;;;;6.20;3.10;;;25.00;68.60;;;;;;5073073;28;20456;-67
2023/10/10 01:42:18;;;;;;;4.00;2.70;;;24.90;68.60;;;;;;5084045;28;20455;-67
2023/10/10 01:44:47;;;;;;;3.17;2.87;;;25.00;68.60;;;;;;5059664;28;20458;-67
2023/10/10 01:47:26;;;;;;;4.47;3.03;;;24.90;68.60;;;;;;5063193;28;20459;-67
2023/10/10 01:49:58;;;;;;;3.23;2.93;;;24.90;68.60;;;;;;5075555;28;20464;-67
2023/10/10 01:52:28;;;;;;;3.30;2.47;;;24.90;68.60;;;;;;5067423;28;20518;-67
2023/10/10 01:54:57;;;;;;;4.00;3.57;;;24.90;68.60;;;;;;5060960;28;20451;-68
2023/10/10 01:57:26;;;;;;;2.40;2.20;;;24.90;68.60;;;;;;5077327;28;20469;-67
2023/10/10 01:59:57;;;;;;;4.63;3.53;;;24.90;68.60;;;;;;5067088;28;20446;-67
2023/10/10 02:02:30;;;;;;;3.07;2.83;;;24.90;68.60;;;;;;5063485;28;20455;-67
2023/10/10 02:04:59;;;;;;;3.30;3.00;;;24.90;68.60;;;;;;5075961;28;20538;-68
2023/10/10 02:07:32;;;;;;;3.00;2.70;;;24.80;68.60;;;;;;5086088;28;20482;-67
2023/10/10 02:10:13;;;;;;;4.63;3.20;;;24.90;68.60;;;;;;5077796;28;20458;-68
2023/10/10 02:12:44;;;;;;;3.10;2.80;;;24.80;68.60;;;;;;5067871;28;20561;-67
2023/10/10 02:15:18;;;;;;;2.17;2.07;;;24.80;68.60;;;;;;5069455;28;20508;-67
2023/10/10 02:17:54;;;;;;;3.60;2.80;;;24.80;68.60;;;;;;5089597;28;20440;-67
2023/10/10 02:20:49;;;;;;;3.60;2.73;;;24.80;68.60;;;;;;5090659;28;20459;-68
2023/10/10 02:23:32;;;;;;;5.60;2.50;;;24.80;68.60;;;;;;5086933;28;20441;-67
2023/10/10 02:26:14;;;;;;;3.60;2.97;;;24.80;68.60;;;;;;5088881;28;20440;-67
2023/10/10 02:28:43;;;;;;;3.53;2.80;;;24.80;68.60;;;;;;5084261;28;20458;-68
2023/10/10 02:31:15;;;;;;;2.80;2.30;;;24.80;68.60;;;;;;5082288;28;20455;-67
2023/10/10 02:33:55;;;;;;;3.10;2.33;;;24.80;68.60;;;;;;5070523;28;20493;-67
2023/10/10 02:36:34;;;;;;;2.90;2.37;;;24.80;68.60;;;;;;5081047;28;20447;-67
2023/10/10 02:42:00;;;;;;;2.53;2.33;;;24.70;68.60;;;;;;5049562;28;20458;-67
2023/10/10 02:44:38;;;;;;;3.20;2.60;;;24.70;68.60;;;;;;5079418;28;20935;-67
2023/10/10 02:47:12;;;;;;;2.53;2.43;;;24.70;68.60;;;;;;5087960;28;20943;-67
2023/10/10 02:49:42;;;;;;;3.07;2.30;;;24.70;68.60;;;;;;5086786;28;21005;-69
2023/10/10 02:52:14;;;;;;;3.40;3.10;;;24.70;68.60;;;;;;5087971;28;20479;-67
2023/10/10 02:54:54;;;;;;;3.60;2.80;;;24.70;68.60;;;;;;5072715;28;20476;-68
2023/10/10 02:57:29;;;;;;;2.93;2.40;;;24.70;68.60;;;;;;5084166;28;20466;-68
2023/10/10 03:00:15;;;;;;;2.90;2.67;;;24.70;68.60;;;;;;5102526;28;20931;-68
2023/10/10 03:02:49;;;;;;;3.13;2.37;;;24.70;68.60;;;;;;5067325;28;20929;-67
2023/10/10 03:08:12;;;;;;;2.43;2.07;;;24.70;68.50;;;;;;5068977;28;20463;-68
2023/10/10 03:10:46;;;;;;;2.43;2.23;;;24.70;68.50;;;;;;5082210;28;20453;-68
2023/10/10 03:13:16;;;;;;;2.47;2.27;;;24.70;68.50;;;;;;5075820;28;20470;-67
2023/10/10 03:15:54;;;;;;;2.43;2.23;;;24.70;68.50;;;;;;5069979;28;20457;-67
2023/10/10 03:18:30;;;;;;;2.50;2.30;;;24.70;68.50;;;;;;5074193;28;20993;-67
2023/10/10 03:21:18;;;;;;;2.70;2.50;;;24.70;68.50;;;;;;5060746;28;20466;-67
2023/10/10 03:23:54;;;;;;;2.70;2.13;;;24.70;68.50;;;;;;5055642;28;20424;-67
2023/10/10 03:29:36;;;;;;;2.23;2.03;;;24.70;68.50;;;;;;5074929;28;20797;-67
2023/10/10 03:32:31;;;;;;;2.50;2.30;;;24.60;68.50;;;;;;5061349;28;20455;-67
2023/10/10 03:35:13;;;;;;;2.67;2.40;;;24.60;68.50;;;;;;5088408;28;20480;-68
2023/10/10 03:37:53;;;;;;;4.37;2.70;;;24.60;68.50;;;;;;5065218;28;20480;-67
2023/10/10 03:40:26;;;;;;;2.53;2.30;;;24.60;68.50;;;;;;5083420;28;20445;-67
2023/10/10 05:23:34;;;;;;;2.80;2.60;;;24.50;68.50;;;;;;5077297;28;20468;-68
2023/10/10 05:26:05;;;;;;;2.27;2.07;;;24.50;68.50;;;;;;5084325;28;20543;-68
2023/10/10 05:28:34;;;;;;;2.37;2.13;;;24.40;68.50;;;;;;5075603;28;20459;-68
2023/10/10 05:31:03;;;;;;;3.00;2.23;;;24.50;68.40;;;;;;5071525;28;20460;-68
2023/10/10 05:33:36;;;;;;;3.00;2.60;;;24.50;68.40;;;;;;5075646;28;20972;-67
2023/10/10 05:36:08;;;;;;;2.10;2.00;;;24.50;68.40;;;;;;5077083;28;20539;-67
2023/10/10 05:38:39;;;;;;;2.00;1.80;;;24.40;68.40;;;;;;5067455;28;21175;-67
2023/10/10 05:41:10;;;;;;;2.63;2.37;;;24.50;68.40;;;;;;5076638;28;20449;-68
2023/10/10 05:43:39;;;;;;;1.90;1.80;;;24.50;68.40;;;;;;5086657;28;20487;-68
2023/10/10 05:46:08;;;;;;;1.50;1.40;;;24.50;68.40;;;;;;5075493;28;20452;-68
2023/10/10 05:48:38;;;;;;;2.13;2.00;;;24.50;68.40;;;;;;5049457;28;20980;-68
2023/10/10 05:51:08;;;;;;;2.40;2.17;;;24.40;68.40;;;;;;5068738;28;20463;-68
2023/10/10 05:53:39;;;;;;;2.93;2.60;;;24.40;68.40;;;;;;5077556;28;20464;-68
2023/10/10 05:56:15;;;;;;;2.03;1.90;;;24.40;68.40;;;;;;5075926;28;20467;-68
2023/10/10 05:58:44;;;;;;;2.40;2.20;;;24.40;68.40;;;;;;5071744;28;21284;-68
2023/10/10 06:01:14;;;;;;;3.63;1.93;;;24.40;68.40;;;;;;5075358;28;20457;-68
2023/10/10 06:03:44;;;;;;;2.47;1.70;;;24.40;68.40;;;;;;5088089;28;20460;-68
2023/10/10 06:06:13;;;;;;;2.30;2.10;;;24.50;68.40;;;;;;5066259;28;20816;-68
2023/10/10 06:08:44;;;;;;;1.57;1.47;;;24.40;68.40;;;;;;5078296;28;20464;-68
2023/10/10 06:11:14;;;;;;;3.17;2.40;;;24.40;68.40;;;;;;5074872;28;20451;-67
2023/10/10 06:13:44;;;;;;;2.87;2.63;;;24.40;68.40;;;;;;5076415;28;20513;-68
2023/10/10 06:16:14;;;;;;;2.00;1.80;;;24.40;68.40;;;;;;5091472;28;20456;-68
2023/10/10 06:18:47;;;;;;;2.30;2.10;;;24.40;68.40;;;;;;5079154;28;20461;-68
2023/10/10 06:21:15;;;;;;;1.93;1.70;;;24.50;68.30;;;;;;5086143;28;20452;-68
2023/10/10 06:23:45;;;;;;;1.97;1.87;;;24.50;68.30;;;;;;5083843;28;20817;-68
2023/10/10 06:26:14;;;;;;;2.20;1.67;;;24.50;68.30;;;;;;5068124;28;20493;-68
2023/10/10 06:28:50;;;;;;;2.23;2.03;;;24.50;68.30;;;;;;5080274;28;20799;-68
2023/10/10 06:31:20;;;;;;;1.70;1.60;;;24.50;68.30;;;;;;5085681;28;20458;-68
2023/10/10 06:33:50;;;;;;;2.23;2.00;;;24.50;68.30;;;;;;5083743;28;20535;-68
2023/10/10 06:36:37;;;;;;;2.67;2.33;;;24.50;68.30;;;;;;5080941;28;20499;-68
2023/10/10 06:39:19;;;;;;;1.80;1.70;;;24.50;68.20;;;;;;5081348;28;20459;-68
2023/10/10 06:41:50;;;;;;;2.30;2.10;;;24.50;68.20;;;;;;5085890;28;20939;-68
2023/10/10 06:44:33;;;;;;;2.17;2.00;;;24.50;68.20;;;;;;5088891;28;20530;-68
2023/10/10 06:47:08;;;;;;;1.90;1.80;;;24.50;68.10;;;;;;5085566;28;20458;-68
2023/10/10 06:49:44;;;;;;;1.70;1.60;;;24.50;68.10;;;;;;5087130;28;20469;-68
2023/10/10 06:52:18;;;;;;;2.00;1.90;;;24.50;68.10;;;;;;5086121;28;20464;-67
2023/10/10 06:54:54;;;;;;;2.03;1.83;;;24.50;68.10;;;;;;5082608;28;20488;-68
2023/10/10 06:57:35;;;;;;;1.80;1.70;;;24.50;68.00;;;;;;5085194;28;20463;-68
2023/10/10 07:00:20;;;;;;;2.27;1.87;;;24.50;68.00;;;;;;5072188;28;20454;-68
2023/10/10 07:02:50;;;;;;;1.93;1.67;;;24.50;68.00;;;;;;5081689;28;20545;-68
2023/10/10 07:05:20;;;;;;;1.80;1.70;;;24.50;68.00;;;;;;5078564;28;21234;-68
2023/10/10 07:07:53;;;;;;;2.23;1.90;;;24.50;68.00;;;;;;5085978;28;20964;-68
2023/10/10 07:10:26;;;;;;;2.30;2.10;;;24.50;67.90;;;;;;5076354;28;20546;-68
2023/10/10 07:12:57;;;;;;;1.87;1.77;;;24.50;67.90;;;;;;5081228;28;20465;-68
2023/10/10 07:15:26;;;;;;;2.80;2.17;;;24.60;67.90;;;;;;5084786;28;20558;-68
2023/10/10 07:18:08;;;;;;;1.80;1.70;;;24.60;67.80;;;;;;5088255;28;20514;-68
2023/10/10 07:23:23;;;;;;;2.10;1.90;;;24.60;67.80;;;;;;5085835;28;21016;-68
2023/10/10 07:26:04;;;;;;;1.67;1.53;;;24.60;67.80;;;;;;5080787;28;20534;-68
2023/10/10 07:28:37;;;;;;;2.20;2.10;;;24.60;67.80;;;;;;5092991;28;20452;-68
2023/10/10 07:31:07;;;;;;;2.17;2.00;;;24.60;67.70;;;;;;5081782;28;20569;-68
2023/10/10 07:33:41;;;;;;;1.87;1.77;;;24.60;67.70;;;;;;5093906;28;20869;-68
2023/10/10 07:36:13;;;;;;;2.00;1.80;;;24.60;67.70;;;;;;5091670;28;20461;-68
2023/10/10 07:38:41;;;;;;;2.50;1.80;;;24.60;67.70;;;;;;5083293;28;20472;-68
2023/10/10 07:41:20;;;;;;;1.70;1.60;;;24.60;67.60;;;;;;5091710;28;20449;-68
2023/10/10 07:43:51;;;;;;;2.07;1.97;;;24.60;67.60;;;;;;5098557;28;20450;-68
2023/10/10 07:46:22;;;;;;;2.00;1.80;;;24.60;67.50;;;;;;5078280;28;20509;-68
2023/10/10 07:48:54;;;;;;;1.97;1.87;;;24.60;67.50;;;;;;5085475;28;20818;-68
2023/10/10 07:51:29;;;;;;;1.43;1.33;;;24.60;67.60;;;;;;5085799;28;20460;-67
2023/10/10 07:54:10;;;;;;;2.30;1.93;;;24.60;67.50;;;;;;5093191;28;20458;-68
2023/10/10 07:56:45;;;;;;;3.00;1.83;;;24.60;67.40;;;;;;5082392;28;20482;-68
2023/10/10 07:59:14;;;;;;;1.67;1.57;;;24.60;67.40;;;;;;5089255;28;20446;-68
2023/10/10 08:01:43;;;;;;;2.43;1.80;;;24.60;67.40;;;;;;5082366;28;20943;-68
2023/10/10 08:04:14;;;;;;;2.57;2.10;;;24.60;67.50;;;;;;5084191;28;20555;-68
2023/10/10 08:06:45;;;;;;;2.20;1.37;;;24.60;67.30;;;;;;5083021;28;20469;-68
2023/10/10 08:09:19;;;;;;;2.33;2.13;;;24.60;67.40;;;;;;5090860;28;21344;-68
2023/10/10 08:11:54;;;;;;;2.30;2.10;;;24.60;67.40;;;;;;5092063;28;20454;-68
2023/10/10 08:14:30;;;;;;;2.40;2.20;;;24.60;67.50;;;;;;5083848;28;20479;-68
2023/10/10 08:16:59;;;;;;;1.50;1.40;;;24.60;67.50;;;;;;5091057;28;20469;-68
2023/10/10 08:19:33;;;;;;;1.93;1.80;;;24.70;67.50;;;;;;5067271;28;20456;-68
2023/10/10 08:22:12;;;;;;;1.80;1.70;;;24.70;67.30;;;;;;5082722;28;20478;-68
2023/10/10 08:24:43;;;;;;;1.97;1.80;;;24.70;67.40;;;;;;5088503;28;20559;-68
2023/10/10 08:27:14;;;;;;;2.10;1.90;;;24.70;67.30;;;;;;5086889;28;20871;-68
2023/10/10 08:29:42;;;;;;;2.33;2.13;;;24.70;67.40;;;;;;5065849;28;20489;-68
2023/10/10 08:32:12;;;;;;;2.03;1.80;;;24.70;67.30;;;;;;5084976;28;20458;-68
2023/10/10 08:34:42;;;;;;;1.87;1.70;;;24.70;67.20;;;;;;5092634;28;20469;-68
2023/10/10 08:37:11;;;;;;;2.80;1.70;;;24.70;67.20;;;;;;5068995;28;20827;-68
2023/10/10 08:39:40;;;;;;;1.97;1.77;;;24.70;67.30;;;;;;5092450;28;20475;-68
2023/10/10 08:42:10;;;;;;;1.40;1.30;;;24.70;67.20;;;;;;5092281;28;20432;-68
2023/10/10 08:44:41;;;;;;;1.77;1.50;;;24.70;67.20;;;;;;5079705;28;20457;-68
2023/10/10 08:47:19;;;;;;;1.60;1.50;;;24.70;67.10;;;;;;5074305;28;20993;-68
2023/10/10 08:49:48;;;;;;;1.80;1.67;;;24.70;67.20;;;;;;5071817;28;20544;-68
2023/10/10 08:52:19;;;;;;;1.70;1.60;;;24.70;67.10;;;;;;5079993;28;20458;-68
2023/10/10 08:54:51;;;;;;;1.90;1.80;;;24.80;67.10;;;;;;5085778;28;20453;-68
2023/10/10 08:57:26;;;;;;;1.70;1.47;;;24.80;67.00;;;;;;5078657;28;20495;-68
2023/10/10 08:59:56;;;;;;;1.90;1.60;;;24.80;67.00;;;;;;5084162;28;20460;-68
2023/10/10 09:02:33;;;;;;;1.30;1.20;;;24.80;67.00;;;;;;5072852;28;20455;-68
2023/10/10 09:05:04;;;;;;;1.90;1.80;;;24.80;67.00;;;;;;5080888;28;20448;-68
2023/10/10 09:07:34;;;;;;;2.37;1.30;;;24.80;67.00;;;;;;5073195;28;20456;-68
2023/10/10 09:10:05;;;;;;;4.00;2.10;;;24.80;67.00;;;;;;5078057;28;20446;-68
2023/10/10 09:12:34;;;;;;;3.00;1.37;;;24.80;67.00;;;;;;5075844;28;20494;-68
2023/10/10 09:15:16;;;;;;;1.87;1.60;;;24.90;66.90;;;;;;5083906;28;20960;-68
2023/10/10 09:17:45;;;;;;;1.70;1.60;;;24.90;66.90;;;;;;5082170;28;20450;-68
2023/10/10 09:20:27;;;;;;;1.70;1.60;;;24.90;66.80;;;;;;5081634;28;20453;-68
2023/10/10 09:23:02;;;;;;;1.77;1.63;;;24.90;66.70;;;;;;5079849;28;20505;-67
2023/10/10 09:25:42;;;;;;;1.40;1.30;;;24.90;66.80;;;;;;5086376;28;21093;-68
2023/10/10 09:28:15;;;;;;;1.40;1.30;;;24.90;66.80;;;;;;5080802;28;20489;-68
2023/10/10 09:30:58;;;;;;;1.50;1.40;;;24.90;66.80;;;;;;5088186;28;20523;-68
2023/10/10 09:33:29;;;;;;;3.77;1.70;;;24.90;66.70;;;;;;5074028;28;20469;-68
2023/10/10 09:36:08;;;;;;;1.80;1.70;;;24.90;66.70;;;;;;5081018;28;20825;-68
2023/10/10 09:38:43;;;;;;;2.07;1.87;;;24.90;66.70;;;;;;5075005;28;20645;-72
2023/10/10 09:41:27;;;;;;;2.33;1.80;;;25.00;67.10;;;;;;5072939;28;20543;-73
2023/10/10 09:47:13;;;;;;;4.70;2.80;;;25.00;68.30;;;;;;5065319;28;20456;-75
2023/10/10 09:49:43;;;;;;;4.83;2.13;;;25.00;68.40;;;;;;5086398;28;20464;-73
2023/10/10 09:55:21;;;;;;;2.43;2.23;;;25.10;68.40;;;;;;5084060;28;20872;-73
2023/10/10 09:58:00;;;;;;;2.70;2.50;;;25.10;68.30;;;;;;5073832;28;20474;-74
2023/10/10 10:00:45;;;;;;;4.33;3.27;;;25.10;68.40;;;;;;5078377;28;20527;-74
2023/10/10 10:03:31;;;;;;;4.60;3.07;;;25.20;68.40;;;;;;5064599;28;20455;-73
2023/10/10 10:06:05;;;;;;;5.57;3.50;;;25.20;68.40;;;;;;5067461;28;20544;-75
2023/10/10 10:08:42;;;;;;;3.63;3.03;;;25.20;68.30;;;;;;5076939;28;20538;-75
2023/10/10 10:11:18;;;;;;;4.17;2.90;;;25.30;68.30;;;;;;5079571;28;20480;-75
2023/10/10 10:13:57;;;;;;;3.80;3.13;;;25.30;68.50;;;;;;5079508;28;20964;-73
2023/10/10 10:16:47;;;;;;;4.73;3.30;;;25.30;68.40;;;;;;5080130;28;20464;-73
2023/10/10 10:19:27;;;;;;;3.37;3.17;;;25.40;68.30;;;;;;5070074;28;20469;-75
2023/10/10 10:22:08;;;;;;;3.97;3.60;;;25.40;68.40;;;;;;5077698;28;20944;-72
2023/10/10 10:24:54;;;;;;;4.93;3.30;;;25.50;68.30;;;;;;5074693;28;20491;-73
2023/10/10 10:27:31;;;;;;;6.67;3.70;;;25.50;68.20;;;;;;5074650;28;20452;-72
2023/10/10 10:30:18;;;;;;;4.50;3.60;;;25.60;68.20;;;;;;5076966;28;21067;-73
2023/10/10 10:32:49;;;;;;;4.40;3.23;;;25.70;68.10;;;;;;5072997;28;20518;-73
2023/10/10 10:35:23;;;;;;;7.80;3.07;;;25.70;67.90;;;;;;5076673;28;21003;-72
2023/10/10 10:37:58;;;;;;;4.73;3.37;;;25.80;67.70;;;;;;5077352;28;20557;-73
2023/10/10 10:40:41;;;;;;;3.37;3.00;;;25.90;67.60;;;;;;5073303;28;20509;-73
2023/10/10 10:43:14;;;;;;;4.23;3.10;;;26.00;67.30;;;;;;5072274;28;20469;-73
2023/10/10 10:45:51;;;;;;;6.67;3.90;;;26.10;67.10;;;;;;5068088;28;20861;-73
2023/10/10 10:48:30;;;;;;;3.43;3.20;;;26.20;66.90;;;;;;5067378;28;20466;-75
2023/10/10 10:51:22;;;;;;;4.20;3.70;;;26.40;66.60;;;;;;5078877;28;20461;-74
2023/10/10 10:53:51;;;;;;;4.47;3.63;;;26.40;66.40;;;;;;5075540;28;20543;-73
2023/10/10 10:56:38;;;;;;;5.03;3.70;;;26.50;66.20;;;;;;5080013;28;20442;-73
2023/10/10 10:59:19;;;;;;;5.83;3.57;;;26.60;66.00;;;;;;5072589;28;20591;-73
2023/10/10 11:01:53;;;;;;;4.23;3.83;;;26.60;66.00;;;;;;5070109;28;20532;-73
2023/10/10 11:04:42;;;;;;;4.57;3.50;;;26.70;65.70;;;;;;5067921;28;22269;-73
2023/10/10 11:07:26;;;;;;;2.90;2.70;;;26.70;65.70;;;;;;5078195;28;20542;-73
2023/10/10 11:10:06;;;;;;;4.30;3.90;;;26.80;65.40;;;;;;5076404;28;20484;-73
2023/10/10 11:12:37;;;;;;;3.43;3.13;;;26.70;65.40;;;;;;5071997;28;20447;-72
2023/10/10 11:15:10;;;;;;;5.20;3.70;;;26.60;65.60;;;;;;5081080;28;20550;-73
2023/10/10 11:17:39;;;;;;;3.20;2.90;;;26.60;65.70;;;;;;5060320;28;20473;-74
2023/10/10 11:20:29;;;;;;;4.20;3.30;;;26.50;65.80;;;;;;5074874;28;20466;-73
2023/10/10 11:23:11;;;;;;;3.97;3.60;;;26.50;65.70;;;;;;5085377;28;20445;-72
2023/10/10 11:25:46;;;;;;;4.97;3.40;;;26.40;65.90;;;;;;5089415;28;20539;-72
2023/10/10 11:28:24;;;;;;;3.43;3.10;;;26.40;66.00;;;;;;5087915;28;20930;-71
2023/10/10 11:30:58;;;;;;;3.57;3.27;;;26.40;66.00;;;;;;5087516;28;20448;-72
2023/10/10 11:33:48;;;;;;;3.30;3.00;;;26.40;66.00;;;;;;5086471;28;20482;-71
2023/10/10 11:36:29;;;;;;;6.10;3.10;;;26.30;66.00;;;;;;5064870;28;20495;-72
2023/10/10 11:39:16;;;;;;;3.37;3.10;;;26.30;65.90;;;;;;5085888;28;20458;-71
2023/10/10 11:41:50;;;;;;;5.00;3.30;;;26.30;65.90;;;;;;5089791;28;20453;-73
2023/10/10 11:44:20;;;;;;;4.43;3.30;;;26.30;65.90;;;;;;5097369;28;20430;-73
2023/10/10 11:46:56;;;;;;;4.10;3.17;;;26.30;65.90;;;;;;5081147;28;20602;-73
2023/10/10 11:49:25;;;;;;;4.23;3.03;;;26.40;65.80;;;;;;5086458;28;20447;-72
2023/10/10 11:51:54;;;;;;;4.00;3.40;;;26.40;65.70;;;;;;5068314;28;20483;-72
2023/10/10 11:54:25;;;;;;;4.53;3.37;;;26.40;65.70;;;;;;5082061;28;20849;-73
2023/10/10 11:56:53;;;;;;;4.50;3.20;;;26.40;65.70;;;;;;5075603;28;20470;-73
2023/10/10 11:59:23;;;;;;;4.40;3.90;;;26.50;65.60;;;;;;5077791;28;20453;-73
2023/10/10 12:01:54;;;;;;;14.33;3.07;;;26.60;65.40;;;;;;5083813;28;20445;-72
2023/10/10 12:04:31;;;;;;;4.50;3.03;;;26.70;65.10;;;;;;5072101;28;21010;-72
2023/10/10 12:07:01;;;;;;;6.03;3.37;;;26.70;65.00;;;;;;5075517;28;20496;-73
2023/10/10 12:09:38;;;;;;;4.13;3.13;;;26.70;64.90;;;;;;5072213;28;20452;-73
2023/10/10 12:12:07;;;;;;;4.43;3.20;;;26.70;64.90;;;;;;5078715;28;20452;-73
2023/10/10 12:14:35;;;;;;;4.23;2.40;;;26.80;64.80;;;;;;5073732;28;21432;-72
2023/10/10 12:17:06;;;;;;;3.30;3.00;;;26.80;64.80;;;;;;5079851;28;20506;-73
2023/10/10 12:19:43;;;;;;;3.87;3.43;;;26.80;64.80;;;;;;5083795;28;20453;-72
2023/10/10 12:22:12;;;;;;;3.30;3.00;;;26.80;64.80;;;;;;5074091;28;20476;-72
2023/10/10 12:24:42;;;;;;;3.70;3.23;;;26.80;64.80;;;;;;5082389;28;20544;-72
2023/10/10 12:27:10;;;;;;;3.50;3.00;;;26.80;64.90;;;;;;5075417;28;21003;-72
2023/10/10 12:29:40;;;;;;;5.20;3.63;;;26.80;64.90;;;;;;5085461;28;20802;-71
2023/10/10 12:32:16;;;;;;;4.37;2.93;;;26.80;65.00;;;;;;5077969;28;20772;-71
2023/10/10 12:34:45;;;;;;;3.33;3.03;;;26.80;65.10;;;;;;5082331;28;20494;-70
2023/10/10 12:37:16;;;;;;;3.07;2.77;;;26.80;65.20;;;;;;5077760;28;20521;-71
2023/10/10 12:39:47;;;;;;;3.10;2.67;;;26.80;65.20;;;;;;5084119;28;20466;-72
2023/10/10 12:42:15;;;;;;;3.80;2.90;;;26.90;65.00;;;;;;5075544;28;20463;-71
2023/10/10 12:44:47;;;;;;;4.30;2.60;;;26.90;64.90;;;;;;5079669;28;20941;-71
2023/10/10 12:47:19;;;;;;;3.50;2.97;;;26.90;65.00;;;;;;5082892;28;20489;-73
2023/10/10 12:49:47;;;;;;;5.37;3.00;;;26.90;65.00;;;;;;5083336;28;20466;-71
2023/10/10 12:52:17;;;;;;;3.00;2.80;;;26.90;65.00;;;;;;5076638;28;20583;-72
2023/10/10 12:54:57;;;;;;;2.67;2.47;;;26.90;65.00;;;;;;5075992;28;20447;-71
2023/10/10 12:57:32;;;;;;;4.50;3.50;;;27.00;64.90;;;;;;5066667;28;20943;-72
2023/10/10 13:00:23;;;;;;;5.50;3.03;;;27.00;64.90;;;;;;5085944;28;20455;-72
2023/10/10 13:02:50;;;;;;;3.77;3.20;;;27.00;64.80;;;;;;5074299;28;20462;-74
2023/10/10 13:05:26;;;;;;;3.07;2.87;;;27.10;64.80;;;;;;5075604;28;20501;-72
2023/10/10 13:07:58;;;;;;;3.00;2.63;;;27.10;64.70;;;;;;5076238;28;20465;-76
2023/10/10 13:10:32;;;;;;;3.67;2.70;;;27.10;64.70;;;;;;5064849;28;20545;-73
2023/10/10 13:13:02;;;;;;;5.93;3.00;;;27.10;64.60;;;;;;5061810;28;20465;-73
2023/10/10 13:15:46;;;;;;;4.13;3.73;;;27.10;64.70;;;;;;5072850;28;20451;-72
2023/10/10 13:18:22;;;;;;;3.43;3.13;;;27.10;64.70;;;;;;5079681;28;20472;-72
2023/10/10 13:20:51;;;;;;;3.53;2.90;;;27.10;64.70;;;;;;5072793;28;20446;-72
2023/10/10 13:23:21;;;;;;;2.93;2.73;;;27.10;64.80;;;;;;5087090;28;20523;-71
2023/10/10 13:25:51;;;;;;;2.70;2.50;;;27.00;64.80;;;;;;5078657;28;20465;-72
2023/10/10 13:28:20;;;;;;;3.53;2.50;;;27.00;64.80;;;;;;5081436;28;21233;-73
2023/10/10 13:30:49;;;;;;;3.70;2.97;;;27.00;64.90;;;;;;5080897;28;21047;-72
2023/10/10 13:33:20;;;;;;;4.67;3.13;;;27.00;65.00;;;;;;5077385;28;20462;-72
2023/10/10 13:35:48;;;;;;;4.00;3.03;;;26.90;65.10;;;;;;5071675;28;20456;-71
2023/10/10 13:38:17;;;;;;;3.60;2.70;;;26.90;65.30;;;;;;5083036;28;20521;-73
2023/10/10 13:40:46;;;;;;;3.73;3.00;;;26.90;65.30;;;;;;5081049;28;20445;-71
2023/10/10 13:43:17;;;;;;;4.50;3.10;;;26.90;65.30;;;;;;5073786;28;20490;-72
2023/10/10 13:45:48;;;;;;;3.50;2.70;;;26.80;65.40;;;;;;5083474;28;20635;-72
2023/10/10 13:48:18;;;;;;;3.50;3.00;;;26.80;65.50;;;;;;5075463;28;20972;-71
2023/10/10 13:50:50;;;;;;;3.27;2.80;;;26.80;65.50;;;;;;5082123;28;21006;-72
2023/10/10 13:53:20;;;;;;;2.90;2.60;;;26.70;65.60;;;;;;5080479;28;20442;-71
2023/10/10 13:55:49;;;;;;;3.93;3.63;;;26.70;65.70;;;;;;5072070;28;20547;-71
2023/10/10 13:58:18;;;;;;;4.00;3.13;;;26.70;65.70;;;;;;5084837;28;20509;-72
2023/10/10 14:00:55;;;;;;;2.70;2.50;;;26.70;65.70;;;;;;5077071;28;20513;-72
2023/10/10 14:03:29;;;;;;;3.87;2.73;;;26.70;65.90;;;;;;5082200;28;20544;-73
2023/10/10 14:06:03;;;;;;;5.27;3.10;;;26.60;65.90;;;;;;5078614;28;20490;-71
2023/10/10 14:08:32;;;;;;;3.50;2.60;;;26.70;65.90;;;;;;5083688;28;20447;-71
2023/10/10 14:11:02;;;;;;;3.50;2.47;;;26.60;65.90;;;;;;5076534;28;20500;-71
2023/10/10 14:13:32;;;;;;;5.87;4.13;;;26.60;66.10;;;;;;5085878;28;20452;-71
2023/10/10 14:16:01;;;;;;;3.60;2.70;;;26.60;66.10;;;;;;5065332;28;20449;-73
2023/10/10 14:18:31;;;;;;;3.03;2.73;;;26.60;66.10;;;;;;5079054;28;20475;-72
2023/10/10 14:21:08;;;;;;;3.83;2.23;;;26.60;66.20;;;;;;5082567;28;20480;-71
2023/10/10 14:23:38;;;;;;;3.10;2.77;;;26.60;66.20;;;;;;5079899;28;20451;-71
2023/10/10 14:26:18;;;;;;;4.80;3.10;;;26.60;66.40;;;;;;5081971;28;20460;-72
2023/10/10 14:28:52;;;;;;;2.83;2.33;;;26.60;66.30;;;;;;5075319;28;20444;-71
2023/10/10 14:31:22;;;;;;;4.00;3.00;;;26.60;66.40;;;;;;5079860;28;20435;-71
2023/10/10 14:33:50;;;;;;;2.23;2.03;;;26.60;66.40;;;;;;5075193;28;20485;-70
2023/10/10 14:36:19;;;;;;;3.20;2.90;;;26.60;66.30;;;;;;5080378;28;20550;-70
2023/10/10 14:38:50;;;;;;;2.73;2.53;;;26.60;66.30;;;;;;5070486;28;20794;-72
2023/10/10 14:41:19;;;;;;;2.87;2.60;;;26.60;66.30;;;;;;5068911;28;20469;-71
2023/10/10 14:43:51;;;;;;;2.30;2.10;;;26.60;66.40;;;;;;5081769;28;20455;-72
2023/10/10 14:46:22;;;;;;;2.50;2.30;;;26.50;66.30;;;;;;5077140;28;20461;-72
2023/10/10 14:48:51;;;;;;;3.70;3.10;;;26.60;66.40;;;;;;5074451;28;20504;-72
2023/10/10 14:51:20;;;;;;;3.20;2.67;;;26.60;66.40;;;;;;5069995;28;20452;-71
2023/10/10 14:53:52;;;;;;;4.73;2.97;;;26.60;66.50;;;;;;5074114;28;20451;-71
2023/10/10 14:56:33;;;;;;;3.80;2.47;;;26.60;66.40;;;;;;5081788;28;20545;-71
2023/10/10 14:59:05;;;;;;;4.00;2.50;;;26.50;66.50;;;;;;5074642;28;20825;-71
2023/10/10 15:01:35;;;;;;;4.63;2.43;;;26.50;66.60;;;;;;5084511;28;20931;-72
2023/10/10 15:04:05;;;;;;;5.30;2.87;;;26.50;66.60;;;;;;5075103;28;20452;-74
2023/10/10 15:06:34;;;;;;;3.80;2.90;;;26.50;66.70;;;;;;5076276;28;20704;-72
2023/10/10 15:09:03;;;;;;;3.37;2.40;;;26.50;66.70;;;;;;5074978;28;20437;-72
2023/10/10 15:11:32;;;;;;;3.50;3.20;;;26.50;66.80;;;;;;5086686;28;20472;-71
2023/10/10 15:14:06;;;;;;;4.73;3.30;;;26.50;66.70;;;;;;5076488;28;20459;-74
2023/10/10 15:16:35;;;;;;;2.57;2.37;;;26.50;66.80;;;;;;5090151;28;20456;-74
2023/10/10 15:19:06;;;;;;;3.20;2.60;;;26.50;66.80;;;;;;5079906;28;20476;-72
2023/10/10 15:21:35;;;;;;;3.03;2.73;;;26.50;66.80;;;;;;5077319;28;20939;-72